sensor_id;sensor_type;location;lat;lon;timestamp;P1;durP1;ratioP1;P2;durP2;ratioP2
29280;SDS011;25048;49.590;11.026;2022-09-09T00:04:29;1.70;;;1.60;;
29280;SDS011;25048;49.590;11.026;2022-09-09T00:10:03;2.00;;;1.83;;
29280;SDS011;25048;49.590;11.026;2022-09-09T00:15:23;2.23;;;1.90;;
29280;SDS011;25048;49.590;11.026;2022-09-09T00:20:24;3.03;;;1.97;;
29280;SDS011;25048;49.590;11.026;2022-09-09T00:23:03;2.33;;;1.60;;
29280;SDS011;25048;49.590;11.026;2022-09-09T00:25:46;4.43;;;1.60;;
29280;SDS011;25048;49.590;11.026;2022-09-09T00:28:22;3.00;;;1.73;;
29280;SDS011;25048;49.590;11.026;2022-09-09T00:30:52;1.70;;;1.60;;
29280;SDS011;25048;49.590;11.026;2022-09-09T00:33:22;3.03;;;1.47;;
29280;SDS011;25048;49.590;11.026;2022-09-09T00:35:51;5.03;;;1.70;;
29280;SDS011;25048;49.590;11.026;2022-09-09T00:38:25;1.87;;;1.30;;
29280;SDS011;25048;49.590;11.026;2022-09-09T00:41:09;7.20;;;1.70;;
29280;SDS011;25048;49.590;11.026;2022-09-09T00:43:43;4.03;;;1.93;;
29280;SDS011;25048;49.590;11.026;2022-09-09T00:49:15;4.10;;;1.60;;
29280;SDS011;25048;49.590;11.026;2022-09-09T00:51:49;1.80;;;1.60;;
29280;SDS011;25048;49.590;11.026;2022-09-09T00:54:38;3.17;;;1.60;;
29280;SDS011;25048;49.590;11.026;2022-09-09T01:03:10;4.23;;;1.70;;
29280;SDS011;25048;49.590;11.026;2022-09-09T01:11:09;3.77;;;1.50;;
29280;SDS011;25048;49.590;11.026;2022-09-09T01:13:38;3.63;;;1.80;;
29280;SDS011;25048;49.590;11.026;2022-09-09T01:16:08;3.37;;;2.00;;
29280;SDS011;25048;49.590;11.026;2022-09-09T01:18:39;3.23;;;1.80;;
29280;SDS011;25048;49.590;11.026;2022-09-09T01:21:17;1.70;;;1.60;;
29280;SDS011;25048;49.590;11.026;2022-09-09T01:29:09;4.90;;;1.70;;
29280;SDS011;25048;49.590;11.026;2022-09-09T01:32:00;3.73;;;1.70;;
29280;SDS011;25048;49.590;11.026;2022-09-09T01:34:38;1.87;;;1.77;;
29280;SDS011;25048;49.590;11.026;2022-09-09T01:37:08;5.20;;;1.90;;
29280;SDS011;25048;49.590;11.026;2022-09-09T01:39:34;4.57;;;1.77;;
29280;SDS011;25048;49.590;11.026;2022-09-09T01:42:03;4.87;;;1.80;;
29280;SDS011;25048;49.590;11.026;2022-09-09T01:44:33;1.97;;;1.77;;
29280;SDS011;25048;49.590;11.026;2022-09-09T01:47:02;4.23;;;1.60;;
29280;SDS011;25048;49.590;11.026;2022-09-09T01:49:30;2.87;;;1.90;;
29280;SDS011;25048;49.590;11.026;2022-09-09T01:51:58;1.90;;;1.70;;
29280;SDS011;25048;49.590;11.026;2022-09-09T01:54:26;7.57;;;1.90;;
29280;SDS011;25048;49.590;11.026;2022-09-09T01:59:45;3.50;;;1.90;;
29280;SDS011;25048;49.590;11.026;2022-09-09T02:05:36;5.67;;;1.97;;
29280;SDS011;25048;49.590;11.026;2022-09-09T02:11:16;3.57;;;1.80;;
29280;SDS011;25048;49.590;11.026;2022-09-09T02:13:46;6.07;;;2.10;;
29280;SDS011;25048;49.590;11.026;2022-09-09T02:16:18;5.10;;;1.70;;
29280;SDS011;25048;49.590;11.026;2022-09-09T02:18:54;3.73;;;1.63;;
29280;SDS011;25048;49.590;11.026;2022-09-09T02:21:28;2.80;;;1.80;;
29280;SDS011;25048;49.590;11.026;2022-09-09T02:23:58;1.80;;;1.70;;
29280;SDS011;25048;49.590;11.026;2022-09-09T02:26:29;3.27;;;1.87;;
29280;SDS011;25048;49.590;11.026;2022-09-09T02:28:59;7.77;;;2.27;;
29280;SDS011;25048;49.590;11.026;2022-09-09T02:31:29;5.53;;;1.90;;
29280;SDS011;25048;49.590;11.026;2022-09-09T02:34:01;3.83;;;2.13;;
29280;SDS011;25048;49.590;11.026;2022-09-09T02:36:30;3.17;;;1.87;;
29280;SDS011;25048;49.590;11.026;2022-09-09T02:39:00;3.80;;;1.97;;
29280;SDS011;25048;49.590;11.026;2022-09-09T02:41:35;2.70;;;1.90;;
29280;SDS011;25048;49.590;11.026;2022-09-09T02:44:00;1.90;;;1.70;;
29280;SDS011;25048;49.590;11.026;2022-09-09T02:49:11;2.33;;;2.00;;
29280;SDS011;25048;49.590;11.026;2022-09-09T02:51:52;2.90;;;1.80;;
29280;SDS011;25048;49.590;11.026;2022-09-09T02:56:56;3.03;;;1.87;;
29280;SDS011;25048;49.590;11.026;2022-09-09T02:59:32;5.90;;;1.90;;
29280;SDS011;25048;49.590;11.026;2022-09-09T03:02:00;2.33;;;1.63;;
29280;SDS011;25048;49.590;11.026;2022-09-09T03:04:28;6.27;;;1.63;;
29280;SDS011;25048;49.590;11.026;2022-09-09T03:06:57;4.13;;;1.70;;
29280;SDS011;25048;49.590;11.026;2022-09-09T03:09:25;2.80;;;1.90;;
29280;SDS011;25048;49.590;11.026;2022-09-09T03:11:52;2.90;;;1.77;;
29280;SDS011;25048;49.590;11.026;2022-09-09T03:14:21;3.73;;;1.70;;
29280;SDS011;25048;49.590;11.026;2022-09-09T03:16:51;2.63;;;1.67;;
29280;SDS011;25048;49.590;11.026;2022-09-09T03:19:20;3.03;;;1.87;;
29280;SDS011;25048;49.590;11.026;2022-09-09T03:21:48;1.67;;;1.57;;
29280;SDS011;25048;49.590;11.026;2022-09-09T03:24:15;2.30;;;1.77;;
29280;SDS011;25048;49.590;11.026;2022-09-09T03:26:43;2.70;;;1.70;;
29280;SDS011;25048;49.590;11.026;2022-09-09T03:29:11;1.90;;;1.70;;
29280;SDS011;25048;49.590;11.026;2022-09-09T03:31:39;4.10;;;1.67;;
29280;SDS011;25048;49.590;11.026;2022-09-09T03:34:06;1.60;;;1.40;;
29280;SDS011;25048;49.590;11.026;2022-09-09T03:36:34;1.93;;;1.50;;
29280;SDS011;25048;49.590;11.026;2022-09-09T03:39:02;1.63;;;1.50;;
29280;SDS011;25048;49.590;11.026;2022-09-09T03:41:30;5.43;;;1.70;;
29280;SDS011;25048;49.590;11.026;2022-09-09T03:43:58;2.03;;;1.73;;
29280;SDS011;25048;49.590;11.026;2022-09-09T03:46:25;4.40;;;1.80;;
29280;SDS011;25048;49.590;11.026;2022-09-09T03:48:53;4.47;;;1.70;;
29280;SDS011;25048;49.590;11.026;2022-09-09T03:51:21;2.30;;;1.90;;
29280;SDS011;25048;49.590;11.026;2022-09-09T03:53:48;2.13;;;1.50;;
29280;SDS011;25048;49.590;11.026;2022-09-09T03:56:16;3.83;;;2.13;;
29280;SDS011;25048;49.590;11.026;2022-09-09T03:58:43;1.70;;;1.60;;
29280;SDS011;25048;49.590;11.026;2022-09-09T04:01:12;3.50;;;1.90;;
29280;SDS011;25048;49.590;11.026;2022-09-09T04:03:40;3.07;;;1.97;;
29280;SDS011;25048;49.590;11.026;2022-09-09T04:06:08;3.77;;;2.20;;
29280;SDS011;25048;49.590;11.026;2022-09-09T04:08:38;3.40;;;1.70;;
29280;SDS011;25048;49.590;11.026;2022-09-09T04:11:05;4.10;;;2.03;;
29280;SDS011;25048;49.590;11.026;2022-09-09T04:13:33;3.20;;;1.90;;
29280;SDS011;25048;49.590;11.026;2022-09-09T04:16:03;3.63;;;2.00;;
29280;SDS011;25048;49.590;11.026;2022-09-09T04:18:31;3.40;;;2.00;;
29280;SDS011;25048;49.590;11.026;2022-09-09T04:20:59;4.20;;;2.03;;
29280;SDS011;25048;49.590;11.026;2022-09-09T04:23:27;2.43;;;2.17;;
29280;SDS011;25048;49.590;11.026;2022-09-09T04:25:56;7.30;;;2.40;;
29280;SDS011;25048;49.590;11.026;2022-09-09T04:28:25;4.93;;;1.90;;
29280;SDS011;25048;49.590;11.026;2022-09-09T04:30:54;4.57;;;2.00;;
29280;SDS011;25048;49.590;11.026;2022-09-09T04:33:23;3.43;;;1.97;;
29280;SDS011;25048;49.590;11.026;2022-09-09T04:35:53;3.57;;;2.10;;
29280;SDS011;25048;49.590;11.026;2022-09-09T04:38:21;4.07;;;2.20;;
29280;SDS011;25048;49.590;11.026;2022-09-09T04:40:49;4.27;;;2.40;;
29280;SDS011;25048;49.590;11.026;2022-09-09T04:43:19;4.40;;;2.10;;
29280;SDS011;25048;49.590;11.026;2022-09-09T04:45:48;5.70;;;2.20;;
29280;SDS011;25048;49.590;11.026;2022-09-09T04:48:20;8.57;;;2.40;;
29280;SDS011;25048;49.590;11.026;2022-09-09T04:50:57;3.63;;;2.30;;
29280;SDS011;25048;49.590;11.026;2022-09-09T04:53:25;3.30;;;2.20;;
29280;SDS011;25048;49.590;11.026;2022-09-09T04:56:00;4.50;;;2.27;;
29280;SDS011;25048;49.590;11.026;2022-09-09T04:58:30;2.17;;;1.80;;
29280;SDS011;25048;49.590;11.026;2022-09-09T05:01:04;2.83;;;1.80;;
29280;SDS011;25048;49.590;11.026;2022-09-09T05:03:33;5.27;;;2.27;;
29280;SDS011;25048;49.590;11.026;2022-09-09T05:06:04;3.97;;;2.03;;
29280;SDS011;25048;49.590;11.026;2022-09-09T05:08:34;5.63;;;2.20;;
29280;SDS011;25048;49.590;11.026;2022-09-09T05:11:21;7.03;;;2.00;;
29280;SDS011;25048;49.590;11.026;2022-09-09T05:13:51;2.67;;;1.97;;
29280;SDS011;25048;49.590;11.026;2022-09-09T05:16:19;2.40;;;2.20;;
29280;SDS011;25048;49.590;11.026;2022-09-09T05:18:48;5.70;;;2.17;;
29280;SDS011;25048;49.590;11.026;2022-09-09T05:21:18;5.53;;;2.03;;
29280;SDS011;25048;49.590;11.026;2022-09-09T05:23:47;3.23;;;1.93;;
29280;SDS011;25048;49.590;11.026;2022-09-09T05:26:17;3.47;;;2.00;;
29280;SDS011;25048;49.590;11.026;2022-09-09T05:28:46;2.67;;;2.43;;
29280;SDS011;25048;49.590;11.026;2022-09-09T05:31:14;3.13;;;1.80;;
29280;SDS011;25048;49.590;11.026;2022-09-09T05:33:43;3.00;;;2.30;;
29280;SDS011;25048;49.590;11.026;2022-09-09T05:36:13;6.80;;;2.10;;
29280;SDS011;25048;49.590;11.026;2022-09-09T05:38:46;2.47;;;2.13;;
29280;SDS011;25048;49.590;11.026;2022-09-09T05:41:12;2.77;;;2.00;;
29280;SDS011;25048;49.590;11.026;2022-09-09T05:43:42;3.77;;;2.33;;
29280;SDS011;25048;49.590;11.026;2022-09-09T05:46:11;3.07;;;1.93;;
29280;SDS011;25048;49.590;11.026;2022-09-09T05:48:42;3.53;;;2.07;;
29280;SDS011;25048;49.590;11.026;2022-09-09T05:51:15;5.93;;;1.93;;
29280;SDS011;25048;49.590;11.026;2022-09-09T05:53:45;2.90;;;2.00;;
29280;SDS011;25048;49.590;11.026;2022-09-09T05:56:17;3.67;;;2.13;;
29280;SDS011;25048;49.590;11.026;2022-09-09T05:58:49;3.03;;;1.83;;
29280;SDS011;25048;49.590;11.026;2022-09-09T06:01:18;2.12;;;1.70;;
29280;SDS011;25048;49.590;11.026;2022-09-09T06:03:51;3.80;;;2.13;;
29280;SDS011;25048;49.590;11.026;2022-09-09T06:06:20;4.43;;;2.30;;
29280;SDS011;25048;49.590;11.026;2022-09-09T06:08:50;4.63;;;2.33;;
29280;SDS011;25048;49.590;11.026;2022-09-09T06:11:20;3.27;;;2.13;;
29280;SDS011;25048;49.590;11.026;2022-09-09T06:13:49;2.33;;;2.07;;
29280;SDS011;25048;49.590;11.026;2022-09-09T06:16:19;3.70;;;2.10;;
29280;SDS011;25048;49.590;11.026;2022-09-09T06:18:52;6.20;;;2.00;;
29280;SDS011;25048;49.590;11.026;2022-09-09T06:21:26;2.53;;;2.23;;
29280;SDS011;25048;49.590;11.026;2022-09-09T06:23:56;3.93;;;2.07;;
29280;SDS011;25048;49.590;11.026;2022-09-09T06:26:24;2.67;;;1.90;;
29280;SDS011;25048;49.590;11.026;2022-09-09T06:29:02;3.33;;;2.10;;
29280;SDS011;25048;49.590;11.026;2022-09-09T06:31:31;4.10;;;1.65;;
29280;SDS011;25048;49.590;11.026;2022-09-09T06:34:00;4.13;;;1.80;;
29280;SDS011;25048;49.590;11.026;2022-09-09T06:36:29;3.93;;;2.07;;
29280;SDS011;25048;49.590;11.026;2022-09-09T06:38:58;2.62;;;1.47;;
29280;SDS011;25048;49.590;11.026;2022-09-09T06:41:27;2.47;;;1.98;;
29280;SDS011;25048;49.590;11.026;2022-09-09T06:43:56;3.03;;;1.80;;
29280;SDS011;25048;49.590;11.026;2022-09-09T06:46:29;6.28;;;1.67;;
29280;SDS011;25048;49.590;11.026;2022-09-09T06:48:57;4.73;;;1.70;;
29280;SDS011;25048;49.590;11.026;2022-09-09T06:51:34;3.92;;;2.02;;
29280;SDS011;25048;49.590;11.026;2022-09-09T06:54:05;3.90;;;1.90;;
29280;SDS011;25048;49.590;11.026;2022-09-09T06:56:33;2.52;;;1.50;;
29280;SDS011;25048;49.590;11.026;2022-09-09T06:59:06;5.75;;;1.57;;
29280;SDS011;25048;49.590;11.026;2022-09-09T07:01:40;3.23;;;1.50;;
29280;SDS011;25048;49.590;11.026;2022-09-09T07:04:06;4.58;;;1.85;;
29280;SDS011;25048;49.590;11.026;2022-09-09T07:06:37;4.35;;;1.50;;
29280;SDS011;25048;49.590;11.026;2022-09-09T07:09:09;5.12;;;1.90;;
29280;SDS011;25048;49.590;11.026;2022-09-09T07:11:44;3.80;;;1.72;;
29280;SDS011;25048;49.590;11.026;2022-09-09T07:14:08;4.78;;;1.55;;
29280;SDS011;25048;49.590;11.026;2022-09-09T07:16:43;3.22;;;1.67;;
29280;SDS011;25048;49.590;11.026;2022-09-09T07:19:12;2.47;;;1.57;;
29280;SDS011;25048;49.590;11.026;2022-09-09T07:21:40;3.42;;;1.50;;
29280;SDS011;25048;49.590;11.026;2022-09-09T07:24:08;7.22;;;1.87;;
29280;SDS011;25048;49.590;11.026;2022-09-09T07:26:36;3.25;;;1.60;;
29280;SDS011;25048;49.590;11.026;2022-09-09T07:29:05;12.78;;;3.35;;
29280;SDS011;25048;49.590;11.026;2022-09-09T07:31:35;3.67;;;1.40;;
29280;SDS011;25048;49.590;11.026;2022-09-09T07:34:05;1.98;;;1.32;;
29280;SDS011;25048;49.590;11.026;2022-09-09T07:36:34;5.75;;;1.57;;
29280;SDS011;25048;49.590;11.026;2022-09-09T07:39:09;8.45;;;1.60;;
29280;SDS011;25048;49.590;11.026;2022-09-09T07:41:40;4.22;;;1.50;;
29280;SDS011;25048;49.590;11.026;2022-09-09T07:44:06;6.50;;;1.45;;
29280;SDS011;25048;49.590;11.026;2022-09-09T07:46:36;2.33;;;1.62;;
29280;SDS011;25048;49.590;11.026;2022-09-09T07:49:07;5.60;;;1.80;;
29280;SDS011;25048;49.590;11.026;2022-09-09T07:51:37;4.00;;;1.37;;
29280;SDS011;25048;49.590;11.026;2022-09-09T07:54:07;5.47;;;1.70;;
29280;SDS011;25048;49.590;11.026;2022-09-09T07:56:37;3.58;;;1.20;;
29280;SDS011;25048;49.590;11.026;2022-09-09T07:59:05;4.78;;;1.25;;
29280;SDS011;25048;49.590;11.026;2022-09-09T08:01:43;5.33;;;1.47;;
29280;SDS011;25048;49.590;11.026;2022-09-09T08:04:08;6.92;;;3.12;;
29280;SDS011;25048;49.590;11.026;2022-09-09T08:06:39;2.60;;;1.00;;
29280;SDS011;25048;49.590;11.026;2022-09-09T08:09:09;1.98;;;1.22;;
29280;SDS011;25048;49.590;11.026;2022-09-09T08:11:37;1.47;;;1.00;;
29280;SDS011;25048;49.590;11.026;2022-09-09T08:14:06;3.62;;;1.32;;
29280;SDS011;25048;49.590;11.026;2022-09-09T08:16:35;4.12;;;1.30;;
29280;SDS011;25048;49.590;11.026;2022-09-09T08:19:05;2.77;;;1.37;;
29280;SDS011;25048;49.590;11.026;2022-09-09T08:21:33;4.62;;;1.40;;
29280;SDS011;25048;49.590;11.026;2022-09-09T08:24:04;1.72;;;1.02;;
29280;SDS011;25048;49.590;11.026;2022-09-09T08:26:34;1.98;;;1.25;;
29280;SDS011;25048;49.590;11.026;2022-09-09T08:29:04;4.03;;;1.22;;
29280;SDS011;25048;49.590;11.026;2022-09-09T08:31:34;4.95;;;1.12;;
29280;SDS011;25048;49.590;11.026;2022-09-09T08:34:04;4.10;;;1.00;;
29280;SDS011;25048;49.590;11.026;2022-09-09T08:36:35;6.97;;;0.82;;
29280;SDS011;25048;49.590;11.026;2022-09-09T08:39:08;4.95;;;0.90;;
29280;SDS011;25048;49.590;11.026;2022-09-09T08:41:46;5.08;;;1.05;;
29280;SDS011;25048;49.590;11.026;2022-09-09T08:47:30;3.62;;;0.90;;
29280;SDS011;25048;49.590;11.026;2022-09-09T08:53:04;3.40;;;1.05;;
29280;SDS011;25048;49.590;11.026;2022-09-09T08:55:52;4.37;;;0.70;;
29280;SDS011;25048;49.590;11.026;2022-09-09T08:58:28;3.87;;;1.00;;
29280;SDS011;25048;49.590;11.026;2022-09-09T09:00:59;6.12;;;1.00;;
29280;SDS011;25048;49.590;11.026;2022-09-09T09:06:18;2.58;;;1.10;;
29280;SDS011;25048;49.590;11.026;2022-09-09T09:11:48;2.10;;;0.60;;
29280;SDS011;25048;49.590;11.026;2022-09-09T09:14:18;2.37;;;0.42;;
29280;SDS011;25048;49.590;11.026;2022-09-09T09:17:04;3.00;;;0.70;;
29280;SDS011;25048;49.590;11.026;2022-09-09T09:19:33;3.10;;;0.70;;
29280;SDS011;25048;49.590;11.026;2022-09-09T09:22:16;3.20;;;0.90;;
29280;SDS011;25048;49.590;11.026;2022-09-09T09:24:53;2.25;;;0.80;;
29280;SDS011;25048;49.590;11.026;2022-09-09T09:27:30;1.65;;;0.82;;
29280;SDS011;25048;49.590;11.026;2022-09-09T09:32:49;1.32;;;0.80;;
29280;SDS011;25048;49.590;11.026;2022-09-09T09:35:15;2.80;;;0.80;;
29280;SDS011;25048;49.590;11.026;2022-09-09T09:37:42;1.55;;;0.68;;
29280;SDS011;25048;49.590;11.026;2022-09-09T09:40:11;4.00;;;1.20;;
29280;SDS011;25048;49.590;11.026;2022-09-09T09:42:51;1.42;;;0.85;;
29280;SDS011;25048;49.590;11.026;2022-09-09T09:46:04;1.77;;;0.95;;
29280;SDS011;25048;49.590;11.026;2022-09-09T09:48:03;0.95;;;0.50;;
29280;SDS011;25048;49.590;11.026;2022-09-09T09:50:32;3.00;;;0.80;;
29280;SDS011;25048;49.590;11.026;2022-09-09T09:53:01;2.67;;;0.82;;
29280;SDS011;25048;49.590;11.026;2022-09-09T09:55:30;2.52;;;1.00;;
29280;SDS011;25048;49.590;11.026;2022-09-09T09:58:04;4.50;;;0.80;;
29280;SDS011;25048;49.590;11.026;2022-09-09T10:00:33;3.42;;;0.88;;
29280;SDS011;25048;49.590;11.026;2022-09-09T10:03:12;2.20;;;0.80;;
29280;SDS011;25048;49.590;11.026;2022-09-09T10:05:35;4.50;;;0.90;;
29280;SDS011;25048;49.590;11.026;2022-09-09T10:08:10;4.80;;;1.25;;
29280;SDS011;25048;49.590;11.026;2022-09-09T10:10:45;2.27;;;1.25;;
29280;SDS011;25048;49.590;11.026;2022-09-09T10:19:09;2.95;;;0.90;;
29280;SDS011;25048;49.590;11.026;2022-09-09T10:21:34;2.20;;;0.70;;
29280;SDS011;25048;49.590;11.026;2022-09-09T10:27:26;4.90;;;1.10;;
29280;SDS011;25048;49.590;11.026;2022-09-09T10:30:09;3.45;;;0.90;;
29280;SDS011;25048;49.590;11.026;2022-09-09T10:32:46;1.55;;;0.60;;
29280;SDS011;25048;49.590;11.026;2022-09-09T10:35:32;3.27;;;0.50;;
29280;SDS011;25048;49.590;11.026;2022-09-09T10:38:05;1.20;;;0.40;;
29280;SDS011;25048;49.590;11.026;2022-09-09T10:49:15;1.47;;;0.55;;
29280;SDS011;25048;49.590;11.026;2022-09-09T10:54:30;2.90;;;0.50;;
29280;SDS011;25048;49.590;11.026;2022-09-09T10:57:04;1.62;;;0.68;;
29280;SDS011;25048;49.590;11.026;2022-09-09T10:59:35;2.33;;;0.45;;
29280;SDS011;25048;49.590;11.026;2022-09-09T11:04:42;2.37;;;0.68;;
29280;SDS011;25048;49.590;11.026;2022-09-09T11:07:12;1.27;;;0.45;;
29280;SDS011;25048;49.590;11.026;2022-09-09T11:09:52;7.62;;;1.15;;
29280;SDS011;25048;49.590;11.026;2022-09-09T11:12:13;3.35;;;0.68;;
29280;SDS011;25048;49.590;11.026;2022-09-09T11:14:43;1.80;;;0.53;;
29280;SDS011;25048;49.590;11.026;2022-09-09T11:17:39;2.50;;;0.70;;
29280;SDS011;25048;49.590;11.026;2022-09-09T11:20:05;2.95;;;0.70;;
29280;SDS011;25048;49.590;11.026;2022-09-09T11:22:35;1.37;;;0.30;;
29280;SDS011;25048;49.590;11.026;2022-09-09T11:25:08;1.80;;;0.30;;
29280;SDS011;25048;49.590;11.026;2022-09-09T11:38:52;2.10;;;0.98;;
29280;SDS011;25048;49.590;11.026;2022-09-09T11:41:22;2.10;;;1.00;;
29280;SDS011;25048;49.590;11.026;2022-09-09T11:43:55;2.35;;;0.80;;
29280;SDS011;25048;49.590;11.026;2022-09-09T11:46:21;2.17;;;0.85;;
29280;SDS011;25048;49.590;11.026;2022-09-09T11:49:00;4.03;;;0.68;;
29280;SDS011;25048;49.590;11.026;2022-09-09T11:51:30;3.92;;;1.00;;
29280;SDS011;25048;49.590;11.026;2022-09-09T11:53:59;3.92;;;0.85;;
29280;SDS011;25048;49.590;11.026;2022-09-09T11:56:34;2.40;;;0.90;;
29280;SDS011;25048;49.590;11.026;2022-09-09T11:59:21;2.47;;;0.70;;
29280;SDS011;25048;49.590;11.026;2022-09-09T12:01:58;1.98;;;0.80;;
29280;SDS011;25048;49.590;11.026;2022-09-09T12:09:58;2.77;;;0.98;;
29280;SDS011;25048;49.590;11.026;2022-09-09T12:12:27;3.25;;;1.10;;
29280;SDS011;25048;49.590;11.026;2022-09-09T12:15:02;2.45;;;0.98;;
29280;SDS011;25048;49.590;11.026;2022-09-09T12:17:51;1.20;;;0.70;;
29280;SDS011;25048;49.590;11.026;2022-09-09T12:20:20;1.72;;;0.80;;
29280;SDS011;25048;49.590;11.026;2022-09-09T12:22:55;2.70;;;0.90;;
29280;SDS011;25048;49.590;11.026;2022-09-09T12:28:18;3.30;;;0.90;;
29280;SDS011;25048;49.590;11.026;2022-09-09T12:31:15;1.70;;;0.80;;
29280;SDS011;25048;49.590;11.026;2022-09-09T12:34:43;4.22;;;0.90;;
29280;SDS011;25048;49.590;11.026;2022-09-09T12:36:36;1.45;;;0.80;;
29280;SDS011;25048;49.590;11.026;2022-09-09T12:39:10;3.55;;;1.00;;
29280;SDS011;25048;49.590;11.026;2022-09-09T12:41:50;3.30;;;1.02;;
29280;SDS011;25048;49.590;11.026;2022-09-09T12:44:20;3.17;;;0.80;;
29280;SDS011;25048;49.590;11.026;2022-09-09T12:46:48;2.10;;;0.90;;
29280;SDS011;25048;49.590;11.026;2022-09-09T12:49:33;3.27;;;0.90;;
29280;SDS011;25048;49.590;11.026;2022-09-09T12:52:04;2.33;;;0.88;;
29280;SDS011;25048;49.590;11.026;2022-09-09T12:54:45;3.15;;;0.98;;
29280;SDS011;25048;49.590;11.026;2022-09-09T12:57:13;1.80;;;0.70;;
29280;SDS011;25048;49.590;11.026;2022-09-09T12:59:42;2.92;;;0.90;;
29280;SDS011;25048;49.590;11.026;2022-09-09T13:02:19;2.52;;;1.00;;
29280;SDS011;25048;49.590;11.026;2022-09-09T13:04:48;5.15;;;1.22;;
29280;SDS011;25048;49.590;11.026;2022-09-09T13:07:17;5.97;;;1.30;;
29280;SDS011;25048;49.590;11.026;2022-09-09T13:09:45;7.42;;;1.90;;
29280;SDS011;25048;49.590;11.026;2022-09-09T13:12:18;15.48;;;1.85;;
29280;SDS011;25048;49.590;11.026;2022-09-09T13:14:49;5.67;;;1.55;;
29280;SDS011;25048;49.590;11.026;2022-09-09T13:17:22;7.47;;;1.20;;
29280;SDS011;25048;49.590;11.026;2022-09-09T13:19:52;4.83;;;1.25;;
29280;SDS011;25048;49.590;11.026;2022-09-09T13:27:41;4.50;;;1.40;;
29280;SDS011;25048;49.590;11.026;2022-09-09T13:33:19;5.15;;;1.70;;
29280;SDS011;25048;49.590;11.026;2022-09-09T13:35:35;2.45;;;1.12;;
29280;SDS011;25048;49.590;11.026;2022-09-09T13:38:07;7.42;;;1.35;;
29280;SDS011;25048;49.590;11.026;2022-09-09T13:40:35;3.10;;;1.30;;
29280;SDS011;25048;49.590;11.026;2022-09-09T13:43:04;3.83;;;1.80;;
29280;SDS011;25048;49.590;11.026;2022-09-09T13:45:31;6.90;;;1.40;;
29280;SDS011;25048;49.590;11.026;2022-09-09T13:48:08;1.67;;;0.95;;
29280;SDS011;25048;49.590;11.026;2022-09-09T13:50:31;4.22;;;1.25;;
29280;SDS011;25048;49.590;11.026;2022-09-09T13:52:58;7.65;;;1.07;;
29280;SDS011;25048;49.590;11.026;2022-09-09T13:55:27;5.03;;;0.95;;
29280;SDS011;25048;49.590;11.026;2022-09-09T13:57:59;3.80;;;1.45;;
29280;SDS011;25048;49.590;11.026;2022-09-09T14:00:29;1.77;;;1.00;;
29280;SDS011;25048;49.590;11.026;2022-09-09T14:02:58;3.85;;;1.05;;
29280;SDS011;25048;49.590;11.026;2022-09-09T14:05:29;5.42;;;1.27;;
29280;SDS011;25048;49.590;11.026;2022-09-09T14:07:58;3.77;;;1.30;;
29280;SDS011;25048;49.590;11.026;2022-09-09T14:10:29;2.15;;;1.07;;
29280;SDS011;25048;49.590;11.026;2022-09-09T14:12:56;3.37;;;1.40;;
29280;SDS011;25048;49.590;11.026;2022-09-09T14:15:24;4.20;;;1.35;;
29280;SDS011;25048;49.590;11.026;2022-09-09T14:17:52;3.20;;;1.20;;
29280;SDS011;25048;49.590;11.026;2022-09-09T14:20:20;5.03;;;1.62;;
29280;SDS011;25048;49.590;11.026;2022-09-09T14:22:47;7.30;;;1.98;;
29280;SDS011;25048;49.590;11.026;2022-09-09T14:25:15;2.80;;;1.12;;
29280;SDS011;25048;49.590;11.026;2022-09-09T14:27:42;3.65;;;1.10;;
29280;SDS011;25048;49.590;11.026;2022-09-09T14:30:11;1.40;;;1.10;;
29280;SDS011;25048;49.590;11.026;2022-09-09T14:32:39;2.95;;;1.65;;
29280;SDS011;25048;49.590;11.026;2022-09-09T14:35:06;2.45;;;1.45;;
29280;SDS011;25048;49.590;11.026;2022-09-09T14:37:34;6.35;;;1.37;;
29280;SDS011;25048;49.590;11.026;2022-09-09T14:40:02;8.90;;;1.45;;
29280;SDS011;25048;49.590;11.026;2022-09-09T14:42:29;3.72;;;1.27;;
29280;SDS011;25048;49.590;11.026;2022-09-09T14:44:57;1.40;;;1.20;;
29280;SDS011;25048;49.590;11.026;2022-09-09T14:47:24;4.78;;;1.25;;
29280;SDS011;25048;49.590;11.026;2022-09-09T14:49:52;5.15;;;1.20;;
29280;SDS011;25048;49.590;11.026;2022-09-09T14:52:20;6.65;;;1.40;;
29280;SDS011;25048;49.590;11.026;2022-09-09T14:54:47;3.52;;;1.00;;
29280;SDS011;25048;49.590;11.026;2022-09-09T14:57:15;4.55;;;1.40;;
29280;SDS011;25048;49.590;11.026;2022-09-09T14:59:42;2.60;;;1.27;;
29280;SDS011;25048;49.590;11.026;2022-09-09T15:02:10;2.85;;;1.10;;
29280;SDS011;25048;49.590;11.026;2022-09-09T15:04:38;2.77;;;0.90;;
29280;SDS011;25048;49.590;11.026;2022-09-09T15:07:06;4.25;;;1.10;;
29280;SDS011;25048;49.590;11.026;2022-09-09T15:09:34;7.60;;;1.12;;
29280;SDS011;25048;49.590;11.026;2022-09-09T15:12:02;4.62;;;1.12;;
29280;SDS011;25048;49.590;11.026;2022-09-09T15:14:30;3.50;;;1.12;;
29280;SDS011;25048;49.590;11.026;2022-09-09T15:16:58;4.10;;;1.20;;
29280;SDS011;25048;49.590;11.026;2022-09-09T15:19:26;5.55;;;1.17;;
29280;SDS011;25048;49.590;11.026;2022-09-09T15:21:54;3.90;;;1.15;;
29280;SDS011;25048;49.590;11.026;2022-09-09T15:24:21;3.58;;;1.15;;
29280;SDS011;25048;49.590;11.026;2022-09-09T15:26:49;3.10;;;1.10;;
29280;SDS011;25048;49.590;11.026;2022-09-09T15:29:16;4.20;;;1.20;;
29280;SDS011;25048;49.590;11.026;2022-09-09T15:31:44;1.62;;;0.95;;
29280;SDS011;25048;49.590;11.026;2022-09-09T15:34:13;5.90;;;1.37;;
29280;SDS011;25048;49.590;11.026;2022-09-09T15:36:42;4.00;;;1.20;;
29280;SDS011;25048;49.590;11.026;2022-09-09T15:39:17;3.33;;;1.40;;
29280;SDS011;25048;49.590;11.026;2022-09-09T15:41:45;2.92;;;1.22;;
29280;SDS011;25048;49.590;11.026;2022-09-09T15:44:15;7.70;;;1.12;;
29280;SDS011;25048;49.590;11.026;2022-09-09T15:46:45;6.47;;;1.25;;
29280;SDS011;25048;49.590;11.026;2022-09-09T15:49:18;1.95;;;1.27;;
29280;SDS011;25048;49.590;11.026;2022-09-09T15:51:53;2.90;;;1.20;;
29280;SDS011;25048;49.590;11.026;2022-09-09T15:54:23;3.20;;;1.20;;
29280;SDS011;25048;49.590;11.026;2022-09-09T15:56:53;3.45;;;1.20;;
29280;SDS011;25048;49.590;11.026;2022-09-09T15:59:22;6.33;;;1.50;;
29280;SDS011;25048;49.590;11.026;2022-09-09T16:01:50;2.58;;;1.02;;
29280;SDS011;25048;49.590;11.026;2022-09-09T16:04:18;4.60;;;1.15;;
29280;SDS011;25048;49.590;11.026;2022-09-09T16:06:52;3.62;;;1.30;;
29280;SDS011;25048;49.590;11.026;2022-09-09T16:09:21;4.95;;;1.90;;
29280;SDS011;25048;49.590;11.026;2022-09-09T16:11:48;6.12;;;1.50;;
29280;SDS011;25048;49.590;11.026;2022-09-09T16:14:17;1.85;;;0.98;;
29280;SDS011;25048;49.590;11.026;2022-09-09T16:16:45;2.55;;;0.98;;
29280;SDS011;25048;49.590;11.026;2022-09-09T16:19:12;3.47;;;1.17;;
29280;SDS011;25048;49.590;11.026;2022-09-09T16:21:41;1.57;;;0.85;;
29280;SDS011;25048;49.590;11.026;2022-09-09T16:24:11;3.83;;;0.85;;
29280;SDS011;25048;49.590;11.026;2022-09-09T16:26:41;2.00;;;0.80;;
29280;SDS011;25048;49.590;11.026;2022-09-09T16:29:12;2.83;;;0.95;;
29280;SDS011;25048;49.590;11.026;2022-09-09T16:31:40;0.95;;;0.80;;
29280;SDS011;25048;49.590;11.026;2022-09-09T16:34:08;0.62;;;0.62;;
29280;SDS011;25048;49.590;11.026;2022-09-09T16:36:37;3.15;;;1.10;;
29280;SDS011;25048;49.590;11.026;2022-09-09T16:39:07;2.52;;;0.80;;
29280;SDS011;25048;49.590;11.026;2022-09-09T16:41:36;1.35;;;0.80;;
29280;SDS011;25048;49.590;11.026;2022-09-09T16:44:06;2.92;;;1.12;;
29280;SDS011;25048;49.590;11.026;2022-09-09T16:46:36;0.72;;;0.72;;